Time;durP1;ratioP1;P1;durP2;ratioP2;P2;SDS_P1;SDS_P2;PMS_P1;PMS_P2;Temp;Humidity;BMP_temperature;BMP_pressure;BME280_temperature;BME280_humidity;BME280_pressure;Samples;Min_cycle;Max_cycle;Signal;HPM_P1;HPM_P2
2022/08/10 00:02:45;;;;;;;8.18;1.80;;;19.50;93.70;;;;;;5005370;28;20116;-79
2022/08/10 00:05:11;;;;;;;5.35;1.77;;;19.60;93.90;;;;;;5032356;28;20497;-78
2022/08/10 00:07:37;;;;;;;6.20;1.73;;;19.60;94.00;;;;;;5014334;28;20036;-79
2022/08/10 00:10:05;;;;;;;4.65;1.98;;;19.60;94.00;;;;;;5026832;28;20108;-76
2022/08/10 00:12:31;;;;;;;11.20;1.90;;;19.50;94.10;;;;;;5018156;28;20135;-77
2022/08/10 00:14:58;;;;;;;5.60;1.70;;;19.50;94.30;;;;;;5027030;28;20017;-77
2022/08/10 00:17:25;;;;;;;4.45;1.77;;;19.50;94.50;;;;;;5013163;28;20033;-77
2022/08/10 00:19:51;;;;;;;3.42;1.38;;;19.50;94.80;;;;;;5021741;28;20040;-78
2022/08/10 00:22:17;;;;;;;2.50;1.45;;;19.50;94.90;;;;;;5031637;28;20092;-78
2022/08/10 00:24:43;;;;;;;7.80;1.90;;;19.40;95.10;;;;;;5031285;28;20053;-79
2022/08/10 00:27:09;;;;;;;5.78;1.95;;;19.40;95.40;;;;;;5034942;28;20040;-77
2022/08/10 00:29:35;;;;;;;6.45;1.85;;;19.40;95.40;;;;;;5031665;28;20030;-77
2022/08/10 00:32:01;;;;;;;3.35;1.60;;;19.50;95.50;;;;;;5022797;28;20513;-77
2022/08/10 00:34:29;;;;;;;3.97;1.90;;;19.50;95.60;;;;;;5013938;28;20052;-77
2022/08/10 00:36:55;;;;;;;5.05;1.80;;;19.60;95.40;;;;;;5034334;28;20026;-76
2022/08/10 00:39:21;;;;;;;5.55;1.90;;;19.60;95.10;;;;;;5030424;28;20056;-78
2022/08/10 00:41:47;;;;;;;7.50;1.77;;;19.50;95.30;;;;;;5032366;28;20034;-77
2022/08/10 00:44:13;;;;;;;5.20;2.08;;;19.50;95.50;;;;;;5018373;28;20060;-77
2022/08/10 00:46:39;;;;;;;5.90;1.40;;;19.40;95.60;;;;;;5023318;28;20080;-78
2022/08/10 00:49:05;;;;;;;5.10;1.80;;;19.40;96.10;;;;;;5030127;28;20502;-77
2022/08/10 00:51:31;;;;;;;3.08;1.70;;;19.40;96.10;;;;;;5010378;28;20033;-79
2022/08/10 00:53:57;;;;;;;7.47;2.08;;;19.30;96.30;;;;;;5031724;28;20030;-77
2022/08/10 00:56:23;;;;;;;9.05;1.88;;;19.30;96.20;;;;;;5037379;28;20034;-77
2022/08/10 00:58:48;;;;;;;1.88;1.27;;;19.30;96.50;;;;;;5044505;28;20037;-78
2022/08/10 01:01:14;;;;;;;4.05;1.73;;;19.20;96.70;;;;;;5031522;28;20041;-78
2022/08/10 01:03:40;;;;;;;6.78;2.28;;;19.20;96.80;;;;;;5038384;28;20053;-78
2022/08/10 01:06:29;;;;;;;8.10;1.73;;;19.10;97.10;;;;;;5036761;28;20029;-78
2022/08/10 01:09:10;;;;;;;3.53;1.73;;;19.10;97.20;;;;;;5029850;28;20067;-77
2022/08/10 01:12:08;;;;;;;9.95;1.85;;;19.00;97.70;;;;;;5022376;28;20048;-77
2022/08/10 01:14:57;;;;;;;3.50;1.77;;;19.00;98.20;;;;;;5036513;28;20072;-78
2022/08/10 01:17:35;;;;;;;3.45;2.08;;;18.90;98.40;;;;;;5012929;28;20060;-77
2022/08/10 01:20:04;;;;;;;5.60;1.75;;;18.90;98.50;;;;;;5038861;28;20025;-78
2022/08/10 01:22:48;;;;;;;3.13;1.83;;;18.80;98.70;;;;;;5039828;28;20037;-77
2022/08/10 01:25:17;;;;;;;3.70;1.50;;;18.90;98.80;;;;;;5038549;28;20030;-76
2022/08/10 01:28:06;;;;;;;4.75;2.10;;;18.90;98.70;;;;;;5032792;28;20026;-78
2022/08/10 01:30:34;;;;;;;17.10;2.47;;;18.90;98.90;;;;;;5019592;28;20414;-78
2022/08/10 01:33:10;;;;;;;3.38;1.85;;;18.90;98.90;;;;;;5029356;28;20024;-78
2022/08/10 01:35:52;;;;;;;4.70;1.60;;;19.00;99.00;;;;;;5028707;28;20030;-78
2022/08/10 01:38:25;;;;;;;4.30;1.75;;;19.00;99.20;;;;;;5009348;28;20305;-77
2022/08/10 01:41:31;;;;;;;4.40;2.00;;;19.00;99.00;;;;;;4999090;28;20038;-78
2022/08/10 01:44:07;;;;;;;7.45;2.20;;;18.90;99.10;;;;;;4982712;28;20113;-79
2022/08/10 01:46:35;;;;;;;3.13;1.55;;;18.90;99.20;;;;;;5019016;28;20048;-78
2022/08/10 01:49:05;;;;;;;2.97;1.42;;;18.90;99.30;;;;;;5015223;28;20026;-77
2022/08/10 01:51:42;;;;;;;7.05;2.10;;;18.90;99.50;;;;;;5002639;28;20022;-77
2022/08/10 01:54:13;;;;;;;6.40;1.83;;;18.90;99.50;;;;;;5027090;28;20122;-77
2022/08/10 01:56:43;;;;;;;4.97;2.00;;;18.90;99.60;;;;;;5026487;28;20046;-77
2022/08/10 01:59:13;;;;;;;6.15;1.77;;;19.00;99.40;;;;;;5008524;28;20088;-78
2022/08/10 02:01:46;;;;;;;5.78;1.70;;;19.10;99.10;;;;;;5025197;28;20085;-77
2022/08/10 02:04:15;;;;;;;6.63;2.17;;;19.10;99.00;;;;;;5033929;28;20042;-78
2022/08/10 02:06:49;;;;;;;3.83;2.00;;;19.10;99.00;;;;;;5025550;28;20022;-76
2022/08/10 02:09:30;;;;;;;5.70;2.10;;;19.00;99.20;;;;;;5004353;28;20117;-77
2022/08/10 02:12:02;;;;;;;6.32;2.47;;;18.90;99.30;;;;;;5007593;28;20417;-78
2022/08/10 02:14:32;;;;;;;4.43;2.17;;;18.90;99.40;;;;;;5026969;28;20029;-79
2022/08/10 02:17:05;;;;;;;5.13;1.95;;;19.00;99.40;;;;;;5028521;28;20389;-79
2022/08/10 02:19:34;;;;;;;5.05;1.90;;;19.00;99.30;;;;;;5026177;28;20026;-76
2022/08/10 02:22:01;;;;;;;6.10;1.80;;;19.10;99.10;;;;;;5028792;28;20028;-78
2022/08/10 02:24:28;;;;;;;6.55;2.05;;;19.20;99.00;;;;;;5033833;28;20090;-77
2022/08/10 02:26:55;;;;;;;2.42;1.75;;;19.10;99.00;;;;;;5015997;28;20076;-78
2022/08/10 02:29:22;;;;;;;5.47;2.00;;;19.10;99.20;;;;;;5030851;28;20120;-77
2022/08/10 02:31:48;;;;;;;10.13;2.13;;;19.20;99.10;;;;;;5033321;28;20083;-79
2022/08/10 02:34:15;;;;;;;3.90;1.90;;;19.10;99.10;;;;;;5022966;28;20076;-78
2022/08/10 02:36:47;;;;;;;4.82;1.98;;;19.10;99.20;;;;;;5030585;28;20028;-77
2022/08/10 02:39:16;;;;;;;4.93;1.95;;;18.90;99.40;;;;;;5007060;28;20113;-77
2022/08/10 02:41:54;;;;;;;4.47;1.85;;;18.90;99.70;;;;;;5032900;28;20095;-77
2022/08/10 02:44:41;;;;;;;7.35;2.10;;;18.80;99.90;;;;;;5029200;28;20086;-78
2022/08/10 02:47:31;;;;;;;4.13;1.92;;;18.60;99.90;;;;;;5004194;28;20446;-77
2022/08/10 02:50:10;;;;;;;6.75;2.03;;;18.60;99.90;;;;;;5011284;28;20075;-78
2022/08/10 02:52:54;;;;;;;2.92;1.67;;;18.50;99.90;;;;;;5008084;28;20030;-76
2022/08/10 02:55:32;;;;;;;7.40;2.25;;;18.50;99.90;;;;;;5026473;28;20070;-78
2022/08/10 02:58:06;;;;;;;4.78;2.38;;;18.40;99.90;;;;;;5030527;28;20109;-77
2022/08/10 03:00:35;;;;;;;4.90;1.60;;;18.40;99.90;;;;;;5031446;28;20046;-79
2022/08/10 03:03:04;;;;;;;6.45;2.42;;;18.30;99.90;;;;;;5026463;28;20033;-76
2022/08/10 03:05:30;;;;;;;8.38;2.25;;;18.40;99.90;;;;;;5023210;28;20040;-77
2022/08/10 03:08:03;;;;;;;2.88;1.75;;;18.30;99.90;;;;;;5032217;28;20509;-77
2022/08/10 03:10:32;;;;;;;6.18;1.75;;;18.30;99.90;;;;;;5022930;28;20030;-77
2022/08/10 03:13:05;;;;;;;3.75;1.90;;;18.40;99.90;;;;;;5007334;28;20075;-77
2022/08/10 03:15:33;;;;;;;7.90;2.15;;;18.40;99.90;;;;;;5028817;28;20021;-77
2022/08/10 03:18:00;;;;;;;6.53;1.92;;;18.30;99.90;;;;;;5028244;28;20018;-76
2022/08/10 03:20:37;;;;;;;3.38;1.83;;;18.30;99.90;;;;;;4997093;28;20033;-76
2022/08/10 03:23:06;;;;;;;4.90;1.92;;;18.20;99.90;;;;;;4996924;28;20026;-78
2022/08/10 03:25:33;;;;;;;3.55;2.33;;;18.10;99.90;;;;;;5025067;28;20397;-77
2022/08/10 03:27:59;;;;;;;5.40;2.47;;;18.10;99.90;;;;;;5005793;28;20026;-77
2022/08/10 03:30:26;;;;;;;8.88;2.42;;;18.10;99.90;;;;;;4997921;28;20014;-77
2022/08/10 03:32:53;;;;;;;7.55;2.10;;;18.10;99.90;;;;;;4997459;28;20053;-78
2022/08/10 03:35:20;;;;;;;7.40;2.20;;;18.00;99.90;;;;;;5021017;28;20105;-77
2022/08/10 03:37:46;;;;;;;9.68;2.35;;;18.00;99.90;;;;;;5024947;28;20033;-78
2022/08/10 03:40:12;;;;;;;6.50;2.20;;;18.00;99.90;;;;;;5015434;28;20036;-77
2022/08/10 03:42:39;;;;;;;7.65;2.00;;;17.90;99.90;;;;;;4996659;28;20034;-77
2022/08/10 03:45:07;;;;;;;10.05;2.15;;;17.90;99.90;;;;;;5003269;28;20045;-78
2022/08/10 03:47:38;;;;;;;10.63;2.38;;;17.90;99.90;;;;;;5014165;28;20045;-78
2022/08/10 03:50:05;;;;;;;3.47;2.00;;;17.90;99.90;;;;;;5015421;28;20026;-79
2022/08/10 03:52:31;;;;;;;6.75;2.53;;;17.80;99.90;;;;;;5019795;28;20029;-77
2022/08/10 03:54:58;;;;;;;7.95;2.17;;;17.80;99.90;;;;;;5020383;28;20478;-77
2022/08/10 03:57:25;;;;;;;9.80;2.80;;;17.70;99.90;;;;;;5029639;28;20022;-79
2022/08/10 03:59:51;;;;;;;6.68;2.38;;;17.70;99.90;;;;;;5028272;28;20068;-78
2022/08/10 04:02:18;;;;;;;8.82;2.92;;;17.70;99.90;;;;;;5009825;28;20044;-78
2022/08/10 04:04:44;;;;;;;4.25;2.13;;;17.70;99.90;;;;;;5019223;28;20025;-81
2022/08/10 04:07:10;;;;;;;6.10;2.30;;;17.60;99.90;;;;;;5031570;28;20056;-81
2022/08/10 04:09:38;;;;;;;5.72;2.33;;;17.60;99.90;;;;;;5024249;28;20044;-78
2022/08/10 04:12:05;;;;;;;10.63;2.63;;;17.60;99.90;;;;;;5025468;28;20033;-78
2022/08/10 04:14:31;;;;;;;5.20;2.20;;;17.60;99.90;;;;;;5025415;28;20081;-78
2022/08/10 04:16:57;;;;;;;9.18;2.80;;;17.80;99.90;;;;;;5035605;28;20021;-77
2022/08/10 04:19:25;;;;;;;7.25;2.80;;;17.90;99.90;;;;;;5038295;28;20091;-77
2022/08/10 04:22:04;;;;;;;5.85;2.38;;;18.00;99.90;;;;;;5025111;28;20034;-76
2022/08/10 04:24:33;;;;;;;6.60;2.20;;;18.20;99.90;;;;;;5030888;28;20112;-77
2022/08/10 04:26:59;;;;;;;9.65;1.90;;;18.30;99.90;;;;;;5023429;28;20041;-77
2022/08/10 04:29:25;;;;;;;12.05;2.30;;;18.40;99.90;;;;;;5028120;28;20057;-78
2022/08/10 04:31:52;;;;;;;12.07;2.83;;;18.50;99.90;;;;;;5028752;28;20025;-76
2022/08/10 04:34:19;;;;;;;7.57;2.55;;;18.60;99.90;;;;;;5023806;28;20412;-77
2022/08/10 04:36:48;;;;;;;10.75;2.60;;;18.50;99.90;;;;;;5024794;28;20100;-77
2022/08/10 04:39:14;;;;;;;6.20;2.40;;;18.50;99.90;;;;;;5010494;28;20405;-77
2022/08/10 04:41:40;;;;;;;9.88;2.25;;;18.50;99.90;;;;;;5028226;28;20057;-77
2022/08/10 04:44:06;;;;;;;12.27;2.75;;;18.40;99.90;;;;;;5030839;28;20030;-78
2022/08/10 04:46:32;;;;;;;8.77;2.50;;;18.40;99.90;;;;;;5026460;28;20049;-78
2022/08/10 04:48:58;;;;;;;7.55;2.38;;;18.40;99.90;;;;;;5029214;28;20026;-77
2022/08/10 04:51:24;;;;;;;8.10;2.67;;;18.40;99.90;;;;;;4997889;28;20101;-77
2022/08/10 04:53:51;;;;;;;9.35;2.65;;;18.50;99.90;;;;;;5016279;28;20029;-78
2022/08/10 04:56:17;;;;;;;7.00;2.75;;;18.50;99.90;;;;;;5016068;28;20358;-78
2022/08/10 04:58:42;;;;;;;6.88;2.92;;;18.60;99.90;;;;;;5000780;28;20046;-78
2022/08/10 05:01:08;;;;;;;4.45;2.45;;;18.70;99.90;;;;;;5016950;28;20040;-77
2022/08/10 05:03:34;;;;;;;4.43;2.28;;;18.80;99.90;;;;;;5084286;22;20076;-83
2022/08/10 05:06:00;;;;;;;6.55;2.05;;;19.00;99.90;;;;;;5037270;28;20022;-85
2022/08/10 05:08:26;;;;;;;4.80;2.63;;;19.10;99.90;;;;;;5041340;28;20033;-82
2022/08/10 05:10:52;;;;;;;6.95;2.72;;;19.20;99.90;;;;;;5058814;28;20013;-85
2022/08/10 05:13:19;;;;;;;11.90;2.65;;;19.40;99.90;;;;;;5040998;28;20045;-83
2022/08/10 05:15:47;;;;;;;10.30;2.60;;;19.60;99.90;;;;;;5058786;28;20029;-82
2022/08/10 05:18:13;;;;;;;5.47;2.60;;;19.50;99.90;;;;;;5041239;28;20029;-84
2022/08/10 05:20:39;;;;;;;4.90;2.47;;;19.50;99.90;;;;;;5058674;28;20028;-82
2022/08/10 05:23:06;;;;;;;7.80;2.10;;;19.50;99.90;;;;;;5042019;28;20093;-83
2022/08/10 05:25:32;;;;;;;8.27;2.55;;;19.50;99.90;;;;;;5056329;28;20429;-85
2022/08/10 05:27:57;;;;;;;5.85;2.17;;;19.60;99.90;;;;;;5052153;28;20026;-86
2022/08/10 05:30:23;;;;;;;7.72;2.65;;;19.60;99.90;;;;;;5047736;28;20036;-86
2022/08/10 05:32:49;;;;;;;6.20;2.42;;;19.90;99.90;;;;;;5050371;28;20031;-84
2022/08/10 05:35:15;;;;;;;5.47;2.20;;;20.20;99.90;;;;;;5037717;28;20500;-85
2022/08/10 05:37:43;;;;;;;5.57;2.40;;;20.40;99.90;;;;;;5030061;28;20033;-84
2022/08/10 05:40:09;;;;;;;8.10;2.55;;;20.50;99.90;;;;;;5030676;28;20331;-86
2022/08/10 05:42:35;;;;;;;19.05;3.03;;;20.60;99.90;;;;;;5054577;28;20026;-83
2022/08/10 05:45:01;;;;;;;6.25;2.65;;;20.70;99.90;;;;;;5041130;28;20017;-84
2022/08/10 05:47:27;;;;;;;6.20;2.30;;;20.70;99.90;;;;;;5077725;28;20089;-82
2022/08/10 05:49:54;;;;;;;4.88;2.45;;;20.70;99.70;;;;;;5076056;28;20056;-83
2022/08/10 05:52:20;;;;;;;3.63;2.30;;;20.60;99.70;;;;;;5061041;28;20036;-86
2022/08/10 05:54:47;;;;;;;7.25;2.35;;;20.60;99.90;;;;;;5060988;28;20063;-87
2022/08/10 05:57:15;;;;;;;6.82;2.20;;;20.60;99.90;;;;;;5076153;28;20032;-85
2022/08/10 05:59:55;;;;;;;12.80;2.28;;;20.70;99.90;;;;;;5060857;28;20009;-87
2022/08/10 06:02:29;;;;;;;5.85;2.20;;;20.70;99.30;;;;;;5061563;28;20029;-87
2022/08/10 06:04:59;;;;;;;6.10;2.30;;;20.80;99.50;;;;;;5061471;28;20043;-88
2022/08/10 06:07:27;;;;;;;9.88;2.60;;;20.90;99.10;;;;;;5078610;28;20012;-86
2022/08/10 06:09:56;;;;;;;11.65;2.60;;;20.80;99.50;;;;;;5060580;28;20036;-86
2022/08/10 06:12:23;;;;;;;9.85;2.55;;;21.00;99.20;;;;;;5077648;28;20005;-84
2022/08/10 06:15:02;;;;;;;13.02;3.60;;;21.10;99.20;;;;;;5055871;28;20150;-82
2022/08/10 06:17:31;;;;;;;8.10;3.70;;;21.20;98.70;;;;;;5068394;28;21888;-87
2022/08/10 06:19:58;;;;;;;10.98;2.97;;;21.30;99.00;;;;;;5054240;28;20014;-87
2022/08/10 06:22:31;;;;;;;9.85;3.00;;;21.40;99.30;;;;;;5052625;28;20048;-88
2022/08/10 06:24:59;;;;;;;12.43;3.47;;;21.50;99.10;;;;;;5053914;28;20053;-84
2022/08/10 06:27:25;;;;;;;6.85;3.15;;;21.70;98.80;;;;;;5018707;28;20068;-87
2022/08/10 06:29:52;;;;;;;9.88;3.60;;;21.90;97.70;;;;;;5032671;28;20421;-86
2022/08/10 06:32:24;;;;;;;19.05;3.17;;;22.10;98.00;;;;;;5037383;28;20026;-85
2022/08/10 06:34:55;;;;;;;15.10;3.22;;;22.20;97.40;;;;;;5029688;28;20029;-86
2022/08/10 06:37:26;;;;;;;9.70;2.90;;;22.20;96.70;;;;;;5032812;28;20028;-86
2022/08/10 06:39:52;;;;;;;10.02;2.83;;;22.10;96.60;;;;;;5028952;28;20029;-87
2022/08/10 06:42:32;;;;;;;6.82;2.70;;;22.00;96.80;;;;;;5046144;28;20029;-87
2022/08/10 06:45:12;;;;;;;7.70;3.00;;;22.00;96.80;;;;;;5025750;28;20026;-85
2022/08/10 06:47:37;;;;;;;7.57;2.65;;;22.00;96.60;;;;;;5043588;28;20057;-85
2022/08/10 06:50:11;;;;;;;6.45;2.75;;;21.90;96.80;;;;;;5027567;28;20026;-88
2022/08/10 06:52:37;;;;;;;9.13;2.53;;;21.80;96.90;;;;;;5052843;28;20026;-85
2022/08/10 06:55:06;;;;;;;13.93;2.78;;;21.60;97.10;;;;;;5060495;28;20013;-85
2022/08/10 06:57:36;;;;;;;8.57;2.75;;;21.60;97.40;;;;;;5057590;28;20018;-85
2022/08/10 07:00:04;;;;;;;10.20;2.47;;;21.70;97.40;;;;;;5056423;28;20044;-86
2022/08/10 07:02:53;;;;;;;5.80;2.40;;;21.70;97.20;;;;;;5056004;28;20013;-85
2022/08/10 07:05:23;;;;;;;5.72;2.60;;;21.80;97.20;;;;;;5055486;28;20050;-86
2022/08/10 07:07:53;;;;;;;5.55;2.80;;;21.90;97.10;;;;;;5040294;28;20032;-86
2022/08/10 07:10:21;;;;;;;7.25;2.45;;;22.10;97.60;;;;;;5052762;28;20475;-86
2022/08/10 07:13:03;;;;;;;8.57;2.90;;;22.30;96.90;;;;;;5032441;28;20016;-89
2022/08/10 07:15:50;;;;;;;5.80;2.75;;;22.50;95.70;;;;;;5028561;28;20148;-90
2022/08/10 07:18:24;;;;;;;9.10;2.88;;;22.70;95.50;;;;;;5030444;28;20032;-89
2022/08/10 07:21:00;;;;;;;6.97;2.92;;;22.90;95.30;;;;;;5044007;28;20037;-90
2022/08/10 07:23:33;;;;;;;6.18;2.20;;;22.90;95.10;;;;;;5031065;28;20461;-89
2022/08/10 07:26:16;;;;;;;;;;;;;;;;;;;;;
2022/08/10 07:28:56;;;;;;;13.80;2.80;;;23.00;94.80;;;;;;5028811;28;20106;-88
2022/08/10 07:32:04;;;;;;;8.00;2.47;;;23.10;94.60;;;;;;5034882;28;20073;-90
2022/08/10 07:34:46;;;;;;;10.57;3.00;;;23.20;94.30;;;;;;5020276;28;20117;-89
2022/08/10 07:37:46;;;;;;;;;;;;;;;;;;;;;
2022/08/10 07:40:26;;;;;;;9.50;2.58;;;23.10;94.20;;;;;;5034005;28;20046;-89
2022/08/10 07:43:38;;;;;;;;;;;;;;;;;;;;;
2022/08/10 07:46:28;;;;;;;9.10;2.20;;;22.90;94.50;;;;;;5038735;28;20034;-89
2022/08/10 07:49:43;;;;;;;7.95;2.60;;;22.80;94.50;;;;;;5023756;28;20045;-88
2022/08/10 07:52:36;;;;;;;7.30;2.50;;;23.00;94.50;;;;;;5018641;28;20113;-89
2022/08/10 07:55:29;;;;;;;5.63;2.55;;;23.10;94.20;;;;;;5025020;28;20018;-91
2022/08/10 07:58:25;;;;;;;12.55;3.25;;;23.10;94.30;;;;;;5039893;28;20030;-87
2022/08/10 08:01:49;;;;;;;6.30;2.20;;;23.20;94.40;;;;;;5035190;28;20057;-89
2022/08/10 08:04:53;;;;;;;;;;;;;;;;;;;;;
2022/08/10 08:07:52;;;;;;;7.18;2.60;;;23.30;94.20;;;;;;5028916;28;20540;-89
2022/08/10 08:10:41;;;;;;;7.05;2.67;;;23.30;94.30;;;;;;5013346;28;20038;-89
2022/08/10 08:13:16;;;;;;;7.95;2.65;;;23.30;94.20;;;;;;5028481;28;20046;-87
2022/08/10 08:15:53;;;;;;;4.85;2.38;;;23.40;94.00;;;;;;5031005;28;20030;-89
2022/08/10 08:18:36;;;;;;;6.97;2.40;;;23.50;94.10;;;;;;5032723;28;20047;-90
2022/08/10 08:21:30;;;;;;;6.65;2.40;;;23.50;94.00;;;;;;5030133;28;20026;-87
2022/08/10 08:24:41;;;;;;;9.45;3.05;;;23.50;93.90;;;;;;5030318;28;20044;-92
2022/08/10 08:27:28;;;;;;;7.57;2.22;;;23.60;93.70;;;;;;5030571;28;20034;-89
2022/08/10 08:30:33;;;;;;;6.97;2.35;;;23.70;93.50;;;;;;5029176;28;20040;-89
2022/08/10 08:33:49;;;;;;;6.55;2.85;;;23.90;91.70;;;;;;4997055;28;20113;-90
2022/08/10 08:36:34;;;;;;;8.90;2.63;;;24.10;90.40;;;;;;5011330;28;20490;-89
2022/08/10 08:39:17;;;;;;;7.78;2.35;;;24.20;90.40;;;;;;5031308;28;20037;-89
2022/08/10 08:42:34;;;;;;;7.03;2.42;;;24.40;89.50;;;;;;5015406;28;20034;-90
2022/08/10 08:45:39;;;;;;;;;;;;;;;;;;;;;
2022/08/10 08:48:58;;;;;;;5.47;2.00;;;24.70;88.10;;;;;;5038090;28;20129;-89
2022/08/10 08:56:00;;;;;;;3.97;2.00;;;24.90;86.20;;;;;;5029250;28;20450;-89
2022/08/10 10:08:34;;;;;;;4.63;2.03;;;33.90;58.90;;;;;;4739494;26;20074;-89
2022/08/10 10:11:23;;;;;;;4.78;2.78;;;36.00;54.90;;;;;;4975114;28;20102;-90
2022/08/10 10:14:03;;;;;;;4.30;2.90;;;36.90;53.30;;;;;;4976127;28;20094;-87
2022/08/10 10:17:02;;;;;;;6.93;2.50;;;37.60;51.90;;;;;;4990180;28;20034;-89
2022/08/10 10:19:52;;;;;;;;;;;38.00;50.00;;;;;;5008339;28;20026;-88
2022/08/10 10:22:45;;;;;;;5.10;1.75;;;39.00;47.60;;;;;;4971934;28;19924;-88
2022/08/10 10:25:50;;;;;;;3.35;1.50;;;39.70;46.70;;;;;;4987861;28;20037;-89
2022/08/10 10:28:52;;;;;;;4.53;2.55;;;40.50;45.30;;;;;;5006011;28;20034;-90
2022/08/10 10:31:34;;;;;;;3.28;2.10;;;40.70;45.00;;;;;;4940101;28;20035;-88
2022/08/10 10:34:05;;;;;;;3.03;1.70;;;39.60;45.20;;;;;;4989149;28;20030;-90
2022/08/10 10:36:33;;;;;;;5.20;1.90;;;40.60;44.80;;;;;;5001617;28;20150;-90
2022/08/10 10:39:00;;;;;;;3.25;1.90;;;41.40;43.40;;;;;;4995465;28;20037;-89
2022/08/10 10:41:47;;;;;;;5.28;1.85;;;41.60;42.60;;;;;;4986562;28;20037;-89
2022/08/10 10:44:38;;;;;;;6.20;2.10;;;42.80;42.00;;;;;;4991141;28;20456;-90
2022/08/10 10:47:22;;;;;;;2.75;1.45;;;43.20;41.30;;;;;;4989500;28;20048;-89
2022/08/10 10:50:32;;;;;;;5.80;1.80;;;42.40;40.40;;;;;;4990718;28;20022;-87
2022/08/10 10:53:34;;;;;;;3.00;1.80;;;42.90;40.80;;;;;;4929324;29;20036;-90
2022/08/10 10:56:22;;;;;;;3.33;1.95;;;42.60;40.60;;;;;;5000591;28;20045;-89
2022/08/10 10:59:33;;;;;;;6.72;1.88;;;43.30;39.90;;;;;;4982565;28;20114;-90
2022/08/10 11:04:41;;;;;;;4.00;1.70;;;41.90;40.10;;;;;;4851400;26;20046;-85
2022/08/10 11:07:20;;;;;;;4.20;1.85;;;39.50;41.00;;;;;;5015829;28;20045;-84
2022/08/10 11:09:53;;;;;;;5.75;3.53;;;39.40;41.40;;;;;;5015033;28;20062;-84
2022/08/10 11:12:48;;;;;;;6.97;1.90;;;39.80;41.00;;;;;;5015617;28;20053;-83
2022/08/10 11:15:18;;;;;;;3.95;2.55;;;41.20;40.70;;;;;;5004946;28;20034;-86
2022/08/10 11:17:50;;;;;;;5.57;2.88;;;42.60;39.50;;;;;;5002557;28;20027;-86
2022/08/10 11:20:36;;;;;;;5.07;1.90;;;42.50;38.90;;;;;;5002134;28;20038;-84
2022/08/10 11:23:43;;;;;;;5.57;2.45;;;42.90;38.70;;;;;;5011493;28;20026;-84
2022/08/10 11:26:32;;;;;;;2.30;1.90;;;43.60;38.40;;;;;;5007450;28;20049;-83
2022/08/10 11:29:23;;;;;;;4.72;1.70;;;43.70;38.10;;;;;;5016566;28;20019;-83
2022/08/10 11:32:18;;;;;;;5.40;1.92;;;43.60;37.70;;;;;;4985140;28;20038;-85
2022/08/10 11:35:13;;;;;;;4.22;2.13;;;43.70;37.80;;;;;;5006492;28;20042;-84
2022/08/10 11:38:13;;;;;;;5.47;1.73;;;44.40;37.50;;;;;;5003581;28;20093;-85
2022/08/10 11:41:06;;;;;;;4.90;1.98;;;43.90;37.40;;;;;;5008325;28;20101;-84
2022/08/10 11:43:37;;;;;;;3.05;1.83;;;44.90;37.00;;;;;;5006322;28;20037;-83
2022/08/10 11:46:33;;;;;;;6.03;1.70;;;44.60;37.10;;;;;;5008352;28;20057;-85
2022/08/10 11:49:11;;;;;;;3.13;1.67;;;44.60;36.50;;;;;;5002439;28;20402;-83
2022/08/10 11:51:46;;;;;;;2.22;1.30;;;43.80;36.30;;;;;;5001669;28;20031;-85
2022/08/10 11:54:25;;;;;;;3.53;1.27;;;44.40;35.50;;;;;;5002165;28;20196;-85
2022/08/10 11:56:58;;;;;;;4.13;2.63;;;44.80;35.50;;;;;;5005101;28;20089;-83
2022/08/10 12:02:14;;;;;;;3.70;2.13;;;44.50;36.10;;;;;;5007516;28;20034;-84
2022/08/10 12:04:46;;;;;;;4.30;2.95;;;44.60;36.40;;;;;;5007657;28;20176;-84
2022/08/10 12:07:15;;;;;;;10.10;2.33;;;44.70;36.20;;;;;;5008942;28;20046;-84
2022/08/10 12:09:42;;;;;;;7.93;1.83;;;43.10;36.40;;;;;;5015440;28;20266;-83
2022/08/10 12:12:09;;;;;;;3.28;1.58;;;42.00;37.00;;;;;;5015766;28;20243;-84
2022/08/10 12:14:50;;;;;;;6.03;2.10;;;42.00;36.90;;;;;;5016275;28;20037;-83
2022/08/10 12:17:30;;;;;;;4.97;2.45;;;42.70;36.50;;;;;;5014903;28;20049;-83
2022/08/10 12:20:23;;;;;;;4.13;2.00;;;43.40;36.10;;;;;;5013640;28;20034;-82
2022/08/10 12:23:00;;;;;;;1.98;1.75;;;44.00;36.30;;;;;;5015651;28;20066;-83
2022/08/10 12:25:50;;;;;;;2.90;1.65;;;44.70;36.50;;;;;;5014910;28;20018;-83
2022/08/10 12:28:35;;;;;;;3.72;1.60;;;44.60;36.20;;;;;;5013784;28;20118;-83
2022/08/10 12:31:07;;;;;;;5.38;1.77;;;44.50;35.80;;;;;;5007380;28;20041;-84
2022/08/10 12:33:41;;;;;;;4.63;1.70;;;44.30;35.80;;;;;;5006903;28;20173;-83
2022/08/10 12:36:45;;;;;;;4.75;1.80;;;44.40;35.90;;;;;;5007776;28;20044;-84
2022/08/10 12:39:16;;;;;;;3.90;1.60;;;45.20;35.70;;;;;;5005392;28;20038;-83
2022/08/10 12:41:55;;;;;;;4.78;2.00;;;44.60;35.20;;;;;;5007509;28;20041;-83
2022/08/10 12:44:32;;;;;;;2.97;1.70;;;45.00;35.40;;;;;;5006401;28;20057;-85
2022/08/10 12:47:32;;;;;;;6.80;1.70;;;44.10;35.70;;;;;;4988218;28;20104;-84
2022/08/10 12:50:29;;;;;;;2.35;1.55;;;42.80;36.70;;;;;;5004652;28;20113;-84
2022/08/10 12:53:02;;;;;;;4.45;1.70;;;42.60;36.70;;;;;;5006825;28;20027;-84
2022/08/10 12:55:31;;;;;;;2.92;1.60;;;42.30;36.70;;;;;;5003838;28;20031;-83
2022/08/10 12:57:58;;;;;;;4.68;1.60;;;42.70;36.50;;;;;;5005233;28;20121;-82
2022/08/10 13:00:30;;;;;;;5.53;1.70;;;43.50;36.00;;;;;;5008089;28;20034;-83
2022/08/10 13:02:58;;;;;;;8.27;1.75;;;43.90;35.80;;;;;;5010661;28;20023;-83
2022/08/10 13:05:25;;;;;;;4.90;1.90;;;44.20;36.00;;;;;;5012668;28;20023;-84
2022/08/10 13:10:53;;;;;;;3.38;1.77;;;44.70;35.90;;;;;;5010786;28;20039;-83
2022/08/10 13:13:23;;;;;;;4.70;1.85;;;45.10;35.60;;;;;;5003587;28;20551;-84
2022/08/10 13:15:51;;;;;;;1.88;1.55;;;44.40;35.90;;;;;;5002397;28;20037;-85
2022/08/10 13:18:32;;;;;;;4.43;1.80;;;43.90;36.30;;;;;;5001631;28;20024;-83
2022/08/10 13:21:07;;;;;;;4.97;2.10;;;42.50;36.80;;;;;;5003661;28;20117;-84
2022/08/10 13:23:41;;;;;;;4.07;2.10;;;40.90;37.50;;;;;;5001631;28;20038;-83
2022/08/10 13:26:13;;;;;;;3.10;1.55;;;41.40;37.80;;;;;;5000898;28;20096;-84
2022/08/10 13:29:09;;;;;;;2.28;1.63;;;42.00;37.60;;;;;;5011372;28;20403;-82
2022/08/10 13:31:42;;;;;;;2.50;1.95;;;42.60;37.20;;;;;;5012775;28;20030;-83
2022/08/10 13:34:16;;;;;;;8.13;2.17;;;43.00;36.90;;;;;;5013014;28;20084;-83
2022/08/10 13:36:46;;;;;;;2.28;1.70;;;42.80;36.90;;;;;;5014231;28;20046;-82
2022/08/10 13:39:13;;;;;;;4.35;1.70;;;42.70;36.80;;;;;;5004460;28;20030;-84
2022/08/10 13:41:41;;;;;;;3.28;1.60;;;43.60;37.20;;;;;;5003651;28;20030;-85
2022/08/10 13:44:10;;;;;;;4.78;1.50;;;43.70;36.20;;;;;;5001433;28;20030;-84
2022/08/10 13:46:39;;;;;;;1.45;1.30;;;43.90;35.90;;;;;;5003436;28;20471;-83
2022/08/10 13:49:07;;;;;;;5.93;1.70;;;43.40;36.20;;;;;;5004439;28;20027;-82
2022/08/10 13:51:35;;;;;;;2.53;1.70;;;44.20;36.20;;;;;;5008473;28;20036;-83
2022/08/10 13:54:02;;;;;;;3.42;2.30;;;44.60;36.10;;;;;;5012971;28;20032;-84
2022/08/10 13:56:30;;;;;;;3.88;2.00;;;44.80;35.80;;;;;;5002626;28;20032;-83
2022/08/10 13:58:58;;;;;;;3.97;2.30;;;44.30;36.20;;;;;;4999359;28;20034;-84
2022/08/10 14:01:30;;;;;;;3.97;1.88;;;44.10;35.70;;;;;;5010395;28;20034;-83
2022/08/10 14:03:58;;;;;;;4.53;2.00;;;43.60;36.10;;;;;;5013977;28;20045;-85
2022/08/10 14:06:25;;;;;;;5.82;1.80;;;43.70;36.10;;;;;;5014586;28;20018;-81
2022/08/10 14:09:03;;;;;;;3.08;2.03;;;44.00;36.10;;;;;;5008504;28;20046;-84
2022/08/10 14:11:30;;;;;;;6.30;1.70;;;44.10;36.20;;;;;;5002186;28;20056;-84
2022/08/10 14:14:23;;;;;;;4.50;2.00;;;44.40;36.20;;;;;;5004651;28;20509;-85
2022/08/10 14:16:50;;;;;;;3.08;1.90;;;44.20;36.20;;;;;;4985811;28;20125;-84
2022/08/10 14:19:22;;;;;;;3.55;1.75;;;44.20;36.10;;;;;;5001388;28;20026;-83
2022/08/10 14:21:48;;;;;;;2.13;1.42;;;45.00;35.80;;;;;;5008353;28;20026;-83
2022/08/10 14:24:25;;;;;;;5.53;1.80;;;44.80;35.80;;;;;;5003711;28;20029;-82
2022/08/10 14:27:00;;;;;;;2.58;2.03;;;44.20;35.90;;;;;;5004034;28;20487;-83
2022/08/10 14:29:28;;;;;;;4.20;1.65;;;43.60;36.10;;;;;;5004037;28;20064;-83
2022/08/10 14:31:56;;;;;;;4.85;1.48;;;43.40;36.30;;;;;;5006378;28;20030;-84
2022/08/10 14:34:29;;;;;;;3.67;1.70;;;42.60;36.20;;;;;;5004798;28;20043;-83
2022/08/10 14:37:07;;;;;;;7.70;1.52;;;42.50;36.40;;;;;;5002237;28;20277;-84
2022/08/10 14:39:47;;;;;;;3.53;2.00;;;42.70;36.30;;;;;;5000617;28;20633;-83
2022/08/10 14:42:28;;;;;;;2.10;1.70;;;43.70;36.00;;;;;;4991588;28;20099;-83
2022/08/10 14:45:00;;;;;;;2.53;1.60;;;43.70;36.00;;;;;;5010113;28;20041;-84
2022/08/10 14:47:29;;;;;;;2.13;1.48;;;43.10;36.10;;;;;;5000353;28;20031;-83
2022/08/10 14:49:57;;;;;;;3.45;2.05;;;43.30;36.40;;;;;;5000937;28;20039;-85
2022/08/10 14:52:26;;;;;;;4.50;1.73;;;43.50;36.20;;;;;;5001155;28;20065;-84
2022/08/10 14:54:53;;;;;;;4.70;1.75;;;42.70;36.30;;;;;;4998891;28;20022;-85
2022/08/10 14:57:21;;;;;;;2.55;1.40;;;42.60;36.30;;;;;;4998470;28;20030;-84
2022/08/10 14:59:48;;;;;;;5.00;1.50;;;42.80;36.00;;;;;;5000726;28;20032;-85